sensor_id;sensor_type;location;lat;lon;timestamp;pressure;altitude;pressure_sealevel;temperature
33877;BMP180;20166;51.738;7.158;2024-03-06T00:00:04;101220.00;;;7.50
33877;BMP180;20166;51.738;7.158;2024-03-06T00:02:52;101204.00;;;7.50
33877;BMP180;20166;51.738;7.158;2024-03-06T00:05:39;101209.00;;;7.50
33877;BMP180;20166;51.738;7.158;2024-03-06T00:08:25;101215.00;;;7.50
33877;BMP180;20166;51.738;7.158;2024-03-06T00:11:13;101220.00;;;7.50
33877;BMP180;20166;51.738;7.158;2024-03-06T00:14:00;101224.00;;;7.50
33877;BMP180;20166;51.738;7.158;2024-03-06T00:16:47;101222.00;;;7.40
33877;BMP180;20166;51.738;7.158;2024-03-06T00:19:35;101233.00;;;7.40
33877;BMP180;20166;51.738;7.158;2024-03-06T00:22:21;101234.00;;;7.40
33877;BMP180;20166;51.738;7.158;2024-03-06T00:25:08;101224.00;;;7.40
33877;BMP180;20166;51.738;7.158;2024-03-06T00:27:55;101234.00;;;7.40
33877;BMP180;20166;51.738;7.158;2024-03-06T00:30:42;101225.00;;;7.40
33877;BMP180;20166;51.738;7.158;2024-03-06T00:33:29;101230.00;;;7.30
33877;BMP180;20166;51.738;7.158;2024-03-06T00:36:15;101227.00;;;7.40
33877;BMP180;20166;51.738;7.158;2024-03-06T00:39:02;101237.00;;;7.40
33877;BMP180;20166;51.738;7.158;2024-03-06T00:41:50;101232.00;;;7.40
33877;BMP180;20166;51.738;7.158;2024-03-06T00:44:36;101235.00;;;7.40
33877;BMP180;20166;51.738;7.158;2024-03-06T00:47:24;101241.00;;;7.40
33877;BMP180;20166;51.738;7.158;2024-03-06T00:50:10;101231.00;;;7.40
33877;BMP180;20166;51.738;7.158;2024-03-06T00:52:57;101236.00;;;7.30
33877;BMP180;20166;51.738;7.158;2024-03-06T00:55:44;101242.00;;;7.40
33877;BMP180;20166;51.738;7.158;2024-03-06T00:58:30;101249.00;;;7.40
33877;BMP180;20166;51.738;7.158;2024-03-06T01:01:17;101248.00;;;7.30
33877;BMP180;20166;51.738;7.158;2024-03-06T01:04:05;101251.00;;;7.30
33877;BMP180;20166;51.738;7.158;2024-03-06T01:06:52;101265.00;;;7.30
33877;BMP180;20166;51.738;7.158;2024-03-06T01:09:39;101256.00;;;7.30
33877;BMP180;20166;51.738;7.158;2024-03-06T01:12:25;101260.00;;;7.30
33877;BMP180;20166;51.738;7.158;2024-03-06T01:15:12;101263.00;;;7.30
33877;BMP180;20166;51.738;7.158;2024-03-06T01:17:58;101263.00;;;7.20
33877;BMP180;20166;51.738;7.158;2024-03-06T01:20:46;101268.00;;;7.20
33877;BMP180;20166;51.738;7.158;2024-03-06T01:23:32;101263.00;;;7.30
33877;BMP180;20166;51.738;7.158;2024-03-06T01:26:19;101271.00;;;7.20
33877;BMP180;20166;51.738;7.158;2024-03-06T01:29:06;101275.00;;;7.20
33877;BMP180;20166;51.738;7.158;2024-03-06T01:31:52;101271.00;;;7.20
33877;BMP180;20166;51.738;7.158;2024-03-06T01:34:39;101269.00;;;7.20
33877;BMP180;20166;51.738;7.158;2024-03-06T01:37:27;101265.00;;;7.30
33877;BMP180;20166;51.738;7.158;2024-03-06T01:40:14;101272.00;;;7.20
33877;BMP180;20166;51.738;7.158;2024-03-06T01:43:01;101274.00;;;7.20
33877;BMP180;20166;51.738;7.158;2024-03-06T01:45:50;101272.00;;;7.20
33877;BMP180;20166;51.738;7.158;2024-03-06T01:48:38;101270.00;;;7.20
33877;BMP180;20166;51.738;7.158;2024-03-06T01:51:25;101274.00;;;7.20
33877;BMP180;20166;51.738;7.158;2024-03-06T01:54:14;101272.00;;;7.10
33877;BMP180;20166;51.738;7.158;2024-03-06T01:57:01;101271.00;;;7.10
33877;BMP180;20166;51.738;7.158;2024-03-06T01:59:49;101276.00;;;7.10
33877;BMP180;20166;51.738;7.158;2024-03-06T02:02:36;101273.00;;;7.00
33877;BMP180;20166;51.738;7.158;2024-03-06T02:05:22;101278.00;;;7.00
33877;BMP180;20166;51.738;7.158;2024-03-06T02:08:08;101288.00;;;6.90
33877;BMP180;20166;51.738;7.158;2024-03-06T02:10:56;101286.00;;;6.90
33877;BMP180;20166;51.738;7.158;2024-03-06T02:13:45;101282.00;;;6.90
33877;BMP180;20166;51.738;7.158;2024-03-06T02:16:31;101291.00;;;6.90
33877;BMP180;20166;51.738;7.158;2024-03-06T02:19:18;101284.00;;;6.90
33877;BMP180;20166;51.738;7.158;2024-03-06T02:22:06;101278.00;;;6.90
33877;BMP180;20166;51.738;7.158;2024-03-06T02:24:52;101281.00;;;6.80
33877;BMP180;20166;51.738;7.158;2024-03-06T02:27:39;101292.00;;;6.80
33877;BMP180;20166;51.738;7.158;2024-03-06T02:30:25;101293.00;;;6.80
33877;BMP180;20166;51.738;7.158;2024-03-06T02:33:11;101291.00;;;6.90
33877;BMP180;20166;51.738;7.158;2024-03-06T02:35:58;101288.00;;;6.80
33877;BMP180;20166;51.738;7.158;2024-03-06T02:38:46;101291.00;;;6.80
33877;BMP180;20166;51.738;7.158;2024-03-06T02:41:33;101294.00;;;6.70
33877;BMP180;20166;51.738;7.158;2024-03-06T02:44:20;101301.00;;;6.80
33877;BMP180;20166;51.738;7.158;2024-03-06T02:47:07;101292.00;;;6.80
33877;BMP180;20166;51.738;7.158;2024-03-06T02:49:53;101297.00;;;6.80
33877;BMP180;20166;51.738;7.158;2024-03-06T02:52:39;101296.00;;;6.70
33877;BMP180;20166;51.738;7.158;2024-03-06T02:55:27;101292.00;;;6.70
33877;BMP180;20166;51.738;7.158;2024-03-06T02:58:14;101289.00;;;6.70
33877;BMP180;20166;51.738;7.158;2024-03-06T03:01:01;101296.00;;;6.70
33877;BMP180;20166;51.738;7.158;2024-03-06T03:03:48;101302.00;;;6.60
33877;BMP180;20166;51.738;7.158;2024-03-06T03:06:36;101296.00;;;6.60
33877;BMP180;20166;51.738;7.158;2024-03-06T03:09:22;101305.00;;;6.70
33877;BMP180;20166;51.738;7.158;2024-03-06T03:12:10;101303.00;;;6.60
33877;BMP180;20166;51.738;7.158;2024-03-06T03:14:59;101301.00;;;6.50
33877;BMP180;20166;51.738;7.158;2024-03-06T03:17:46;101299.00;;;6.40
33877;BMP180;20166;51.738;7.158;2024-03-06T03:20:33;101299.00;;;6.30
33877;BMP180;20166;51.738;7.158;2024-03-06T03:23:19;101302.00;;;6.20
33877;BMP180;20166;51.738;7.158;2024-03-06T03:26:08;101295.00;;;6.10
33877;BMP180;20166;51.738;7.158;2024-03-06T03:28:57;101304.00;;;6.10
33877;BMP180;20166;51.738;7.158;2024-03-06T03:31:43;101299.00;;;6.00
33877;BMP180;20166;51.738;7.158;2024-03-06T03:34:29;101300.00;;;6.00
33877;BMP180;20166;51.738;7.158;2024-03-06T03:37:16;101305.00;;;6.00
33877;BMP180;20166;51.738;7.158;2024-03-06T03:40:03;101307.00;;;5.80
33877;BMP180;20166;51.738;7.158;2024-03-06T03:42:49;101309.00;;;5.80
33877;BMP180;20166;51.738;7.158;2024-03-06T03:45:37;101308.00;;;5.80
33877;BMP180;20166;51.738;7.158;2024-03-06T03:48:23;101312.00;;;5.70
33877;BMP180;20166;51.738;7.158;2024-03-06T03:51:10;101315.00;;;5.70
33877;BMP180;20166;51.738;7.158;2024-03-06T03:53:57;101319.00;;;5.70
33877;BMP180;20166;51.738;7.158;2024-03-06T03:56:43;101322.00;;;5.70
33877;BMP180;20166;51.738;7.158;2024-03-06T03:59:30;101326.00;;;5.70
33877;BMP180;20166;51.738;7.158;2024-03-06T04:02:18;101329.00;;;5.60
33877;BMP180;20166;51.738;7.158;2024-03-06T04:05:05;101325.00;;;5.50
33877;BMP180;20166;51.738;7.158;2024-03-06T04:07:51;101327.00;;;5.40
33877;BMP180;20166;51.738;7.158;2024-03-06T04:10:39;101334.00;;;5.50
33877;BMP180;20166;51.738;7.158;2024-03-06T04:13:26;101328.00;;;5.50
33877;BMP180;20166;51.738;7.158;2024-03-06T04:16:16;101333.00;;;5.50
33877;BMP180;20166;51.738;7.158;2024-03-06T04:19:04;101333.00;;;5.40
33877;BMP180;20166;51.738;7.158;2024-03-06T04:21:51;101332.00;;;5.40
33877;BMP180;20166;51.738;7.158;2024-03-06T04:24:40;101335.00;;;5.30
33877;BMP180;20166;51.738;7.158;2024-03-06T04:27:27;101340.00;;;5.40
33877;BMP180;20166;51.738;7.158;2024-03-06T04:30:14;101349.00;;;5.30
33877;BMP180;20166;51.738;7.158;2024-03-06T04:33:00;101355.00;;;5.20
33877;BMP180;20166;51.738;7.158;2024-03-06T04:35:48;101350.00;;;5.20
33877;BMP180;20166;51.738;7.158;2024-03-06T04:38:35;101355.00;;;5.20
33877;BMP180;20166;51.738;7.158;2024-03-06T04:41:22;101363.00;;;5.20
33877;BMP180;20166;51.738;7.158;2024-03-06T04:44:08;101362.00;;;5.10
33877;BMP180;20166;51.738;7.158;2024-03-06T04:47:12;101364.00;;;5.10
33877;BMP180;20166;51.738;7.158;2024-03-06T04:49:59;101362.00;;;5.00
33877;BMP180;20166;51.738;7.158;2024-03-06T04:52:47;101365.00;;;5.00
33877;BMP180;20166;51.738;7.158;2024-03-06T04:55:33;101378.00;;;5.00
33877;BMP180;20166;51.738;7.158;2024-03-06T04:58:22;101369.00;;;5.00
33877;BMP180;20166;51.738;7.158;2024-03-06T05:01:08;101383.00;;;5.10
33877;BMP180;20166;51.738;7.158;2024-03-06T05:03:55;101388.00;;;5.10
33877;BMP180;20166;51.738;7.158;2024-03-06T05:06:59;101378.00;;;5.10
33877;BMP180;20166;51.738;7.158;2024-03-06T05:10:06;101392.00;;;5.10
33877;BMP180;20166;51.738;7.158;2024-03-06T05:13:11;101403.00;;;5.10
33877;BMP180;20166;51.738;7.158;2024-03-06T05:16:16;101403.00;;;5.10
33877;BMP180;20166;51.738;7.158;2024-03-06T05:19:20;101408.00;;;5.10
33877;BMP180;20166;51.738;7.158;2024-03-06T05:22:25;101409.00;;;5.10
33877;BMP180;20166;51.738;7.158;2024-03-06T05:25:30;101419.00;;;5.10
33877;BMP180;20166;51.738;7.158;2024-03-06T05:28:35;101418.00;;;5.10
33877;BMP180;20166;51.738;7.158;2024-03-06T05:31:40;101423.00;;;5.10
33877;BMP180;20166;51.738;7.158;2024-03-06T05:34:45;101422.00;;;5.20
33877;BMP180;20166;51.738;7.158;2024-03-06T05:37:49;101433.00;;;5.10
33877;BMP180;20166;51.738;7.158;2024-03-06T05:40:54;101422.00;;;5.10
33877;BMP180;20166;51.738;7.158;2024-03-06T05:43:59;101432.00;;;5.10
33877;BMP180;20166;51.738;7.158;2024-03-06T05:47:03;101439.00;;;5.10
33877;BMP180;20166;51.738;7.158;2024-03-06T05:50:09;101436.00;;;5.10
33877;BMP180;20166;51.738;7.158;2024-03-06T05:53:14;101441.00;;;5.10
33877;BMP180;20166;51.738;7.158;2024-03-06T05:56:19;101441.00;;;5.10
33877;BMP180;20166;51.738;7.158;2024-03-06T05:59:24;101451.00;;;5.10
33877;BMP180;20166;51.738;7.158;2024-03-06T06:02:10;101453.00;;;5.10
33877;BMP180;20166;51.738;7.158;2024-03-06T06:04:57;101451.00;;;5.10
33877;BMP180;20166;51.738;7.158;2024-03-06T06:08:04;101447.00;;;5.20
33877;BMP180;20166;51.738;7.158;2024-03-06T06:10:50;101461.00;;;5.20
33877;BMP180;20166;51.738;7.158;2024-03-06T06:13:39;101461.00;;;5.20
33877;BMP180;20166;51.738;7.158;2024-03-06T06:16:25;101457.00;;;5.20
33877;BMP180;20166;51.738;7.158;2024-03-06T06:19:12;101460.00;;;5.20
33877;BMP180;20166;51.738;7.158;2024-03-06T06:21:58;101466.00;;;5.20
33877;BMP180;20166;51.738;7.158;2024-03-06T06:24:45;101470.00;;;5.20
33877;BMP180;20166;51.738;7.158;2024-03-06T06:27:32;101475.00;;;5.20
33877;BMP180;20166;51.738;7.158;2024-03-06T06:30:20;101479.00;;;5.30
33877;BMP180;20166;51.738;7.158;2024-03-06T06:33:07;101480.00;;;5.30
33877;BMP180;20166;51.738;7.158;2024-03-06T06:35:53;101491.00;;;5.30
33877;BMP180;20166;51.738;7.158;2024-03-06T06:38:40;101501.00;;;5.40
33877;BMP180;20166;51.738;7.158;2024-03-06T06:41:27;101501.00;;;5.40
33877;BMP180;20166;51.738;7.158;2024-03-06T06:44:13;101505.00;;;5.40
33877;BMP180;20166;51.738;7.158;2024-03-06T06:47:01;101521.00;;;5.50
33877;BMP180;20166;51.738;7.158;2024-03-06T06:49:47;101509.00;;;5.50
33877;BMP180;20166;51.738;7.158;2024-03-06T06:52:34;101508.00;;;5.60
33877;BMP180;20166;51.738;7.158;2024-03-06T06:55:20;101517.00;;;5.60
33877;BMP180;20166;51.738;7.158;2024-03-06T06:58:08;101520.00;;;5.60
33877;BMP180;20166;51.738;7.158;2024-03-06T07:00:54;101521.00;;;5.60
33877;BMP180;20166;51.738;7.158;2024-03-06T07:03:42;101526.00;;;5.60
33877;BMP180;20166;51.738;7.158;2024-03-06T07:06:28;101522.00;;;5.60
33877;BMP180;20166;51.738;7.158;2024-03-06T07:09:15;101526.00;;;5.60
33877;BMP180;20166;51.738;7.158;2024-03-06T07:12:02;101536.00;;;5.60
33877;BMP180;20166;51.738;7.158;2024-03-06T07:14:49;101534.00;;;5.70
33877;BMP180;20166;51.738;7.158;2024-03-06T07:17:35;101533.00;;;5.70
33877;BMP180;20166;51.738;7.158;2024-03-06T07:20:23;101535.00;;;5.70
33877;BMP180;20166;51.738;7.158;2024-03-06T07:23:09;101539.00;;;5.70
33877;BMP180;20166;51.738;7.158;2024-03-06T07:25:56;101542.00;;;5.70
33877;BMP180;20166;51.738;7.158;2024-03-06T07:28:44;101542.00;;;5.80
33877;BMP180;20166;51.738;7.158;2024-03-06T07:31:30;101546.00;;;5.80
33877;BMP180;20166;51.738;7.158;2024-03-06T07:34:17;101553.00;;;5.80
33877;BMP180;20166;51.738;7.158;2024-03-06T07:37:05;101546.00;;;5.80
33877;BMP180;20166;51.738;7.158;2024-03-06T07:39:51;101554.00;;;5.80
33877;BMP180;20166;51.738;7.158;2024-03-06T07:42:38;101552.00;;;5.90
33877;BMP180;20166;51.738;7.158;2024-03-06T07:45:25;101553.00;;;5.90
33877;BMP180;20166;51.738;7.158;2024-03-06T07:48:11;101568.00;;;6.00
33877;BMP180;20166;51.738;7.158;2024-03-06T07:50:58;101562.00;;;6.10
33877;BMP180;20166;51.738;7.158;2024-03-06T07:53:46;101568.00;;;6.20
33877;BMP180;20166;51.738;7.158;2024-03-06T07:56:34;101566.00;;;6.20
33877;BMP180;20166;51.738;7.158;2024-03-06T07:59:21;101569.00;;;6.20
33877;BMP180;20166;51.738;7.158;2024-03-06T08:02:07;101578.00;;;6.30
33877;BMP180;20166;51.738;7.158;2024-03-06T08:04:54;101576.00;;;6.30
33877;BMP180;20166;51.738;7.158;2024-03-06T08:07:41;101581.00;;;6.30
33877;BMP180;20166;51.738;7.158;2024-03-06T08:10:29;101581.00;;;6.40
33877;BMP180;20166;51.738;7.158;2024-03-06T08:13:16;101598.00;;;6.40
33877;BMP180;20166;51.738;7.158;2024-03-06T08:16:04;101590.00;;;6.50
33877;BMP180;20166;51.738;7.158;2024-03-06T08:18:51;101582.00;;;6.50
33877;BMP180;20166;51.738;7.158;2024-03-06T08:21:37;101599.00;;;6.50
33877;BMP180;20166;51.738;7.158;2024-03-06T08:24:24;101613.00;;;6.60
33877;BMP180;20166;51.738;7.158;2024-03-06T08:27:12;101616.00;;;6.70
33877;BMP180;20166;51.738;7.158;2024-03-06T08:29:58;101602.00;;;6.80
33877;BMP180;20166;51.738;7.158;2024-03-06T08:32:45;101608.00;;;6.90
33877;BMP180;20166;51.738;7.158;2024-03-06T08:35:31;101619.00;;;6.90
33877;BMP180;20166;51.738;7.158;2024-03-06T08:38:19;101624.00;;;7.00
33877;BMP180;20166;51.738;7.158;2024-03-06T08:41:05;101628.00;;;7.00
33877;BMP180;20166;51.738;7.158;2024-03-06T08:43:53;101636.00;;;7.10
33877;BMP180;20166;51.738;7.158;2024-03-06T08:46:40;101635.00;;;7.10
33877;BMP180;20166;51.738;7.158;2024-03-06T08:49:27;101643.00;;;7.10
33877;BMP180;20166;51.738;7.158;2024-03-06T08:52:13;101641.00;;;7.10
33877;BMP180;20166;51.738;7.158;2024-03-06T08:55:00;101648.00;;;7.10
33877;BMP180;20166;51.738;7.158;2024-03-06T08:57:49;101661.00;;;7.10
33877;BMP180;20166;51.738;7.158;2024-03-06T09:00:39;101661.00;;;7.00
33877;BMP180;20166;51.738;7.158;2024-03-06T09:03:25;101666.00;;;7.00
33877;BMP180;20166;51.738;7.158;2024-03-06T09:06:12;101666.00;;;7.20
33877;BMP180;20166;51.738;7.158;2024-03-06T09:08:58;101671.00;;;7.20
33877;BMP180;20166;51.738;7.158;2024-03-06T09:11:45;101666.00;;;7.10
33877;BMP180;20166;51.738;7.158;2024-03-06T09:14:31;101672.00;;;7.20
33877;BMP180;20166;51.738;7.158;2024-03-06T09:17:19;101663.00;;;7.20
33877;BMP180;20166;51.738;7.158;2024-03-06T09:20:06;101660.00;;;7.40
33877;BMP180;20166;51.738;7.158;2024-03-06T09:22:57;101667.00;;;7.50
33877;BMP180;20166;51.738;7.158;2024-03-06T09:25:45;101671.00;;;7.50
33877;BMP180;20166;51.738;7.158;2024-03-06T09:28:33;101668.00;;;7.50
33877;BMP180;20166;51.738;7.158;2024-03-06T09:31:20;101675.00;;;7.60
33877;BMP180;20166;51.738;7.158;2024-03-06T09:34:08;101676.00;;;7.80
33877;BMP180;20166;51.738;7.158;2024-03-06T09:36:56;101683.00;;;7.80
33877;BMP180;20166;51.738;7.158;2024-03-06T09:39:43;101696.00;;;7.90
33877;BMP180;20166;51.738;7.158;2024-03-06T09:42:32;101697.00;;;7.90
33877;BMP180;20166;51.738;7.158;2024-03-06T09:45:19;101694.00;;;8.00
33877;BMP180;20166;51.738;7.158;2024-03-06T09:48:08;101694.00;;;8.20
33877;BMP180;20166;51.738;7.158;2024-03-06T09:51:00;101694.00;;;8.20
33877;BMP180;20166;51.738;7.158;2024-03-06T09:53:47;101700.00;;;8.20
33877;BMP180;20166;51.738;7.158;2024-03-06T09:56:34;101696.00;;;8.10
33877;BMP180;20166;51.738;7.158;2024-03-06T09:59:21;101704.00;;;8.10
33877;BMP180;20166;51.738;7.158;2024-03-06T10:02:18;101705.00;;;8.20
33877;BMP180;20166;51.738;7.158;2024-03-06T10:05:08;101712.00;;;8.30
33877;BMP180;20166;51.738;7.158;2024-03-06T10:08:07;101709.00;;;8.40
33877;BMP180;20166;51.738;7.158;2024-03-06T10:10:54;101715.00;;;8.40
33877;BMP180;20166;51.738;7.158;2024-03-06T10:13:41;101717.00;;;8.40
33877;BMP180;20166;51.738;7.158;2024-03-06T10:16:27;101723.00;;;8.50
33877;BMP180;20166;51.738;7.158;2024-03-06T10:19:16;101713.00;;;8.70
33877;BMP180;20166;51.738;7.158;2024-03-06T10:22:06;101720.00;;;8.90
33877;BMP180;20166;51.738;7.158;2024-03-06T10:24:56;101722.00;;;8.90
33877;BMP180;20166;51.738;7.158;2024-03-06T10:27:43;101728.00;;;8.90
33877;BMP180;20166;51.738;7.158;2024-03-06T10:30:29;101729.00;;;8.90
33877;BMP180;20166;51.738;7.158;2024-03-06T10:33:18;101721.00;;;8.90
33877;BMP180;20166;51.738;7.158;2024-03-06T10:36:05;101717.00;;;9.00
33877;BMP180;20166;51.738;7.158;2024-03-06T10:38:53;101723.00;;;9.10
33877;BMP180;20166;51.738;7.158;2024-03-06T10:41:44;101723.00;;;9.20
33877;BMP180;20166;51.738;7.158;2024-03-06T10:44:30;101725.00;;;9.30
33877;BMP180;20166;51.738;7.158;2024-03-06T10:47:17;101728.00;;;9.50
33877;BMP180;20166;51.738;7.158;2024-03-06T10:50:06;101734.00;;;9.50
33877;BMP180;20166;51.738;7.158;2024-03-06T10:52:56;101730.00;;;9.60
33877;BMP180;20166;51.738;7.158;2024-03-06T10:55:45;101729.00;;;9.80
33877;BMP180;20166;51.738;7.158;2024-03-06T10:58:33;101728.00;;;10.00
33877;BMP180;20166;51.738;7.158;2024-03-06T11:01:20;101727.00;;;10.30
33877;BMP180;20166;51.738;7.158;2024-03-06T11:04:07;101728.00;;;10.50
33877;BMP180;20166;51.738;7.158;2024-03-06T11:06:54;101731.00;;;10.60
33877;BMP180;20166;51.738;7.158;2024-03-06T11:09:41;101731.00;;;10.80
33877;BMP180;20166;51.738;7.158;2024-03-06T11:12:35;101738.00;;;10.60
33877;BMP180;20166;51.738;7.158;2024-03-06T11:15:24;101734.00;;;10.60
33877;BMP180;20166;51.738;7.158;2024-03-06T11:18:42;101746.00;;;10.70
33877;BMP180;20166;51.738;7.158;2024-03-06T11:21:29;101734.00;;;10.80
33877;BMP180;20166;51.738;7.158;2024-03-06T11:24:20;101741.00;;;10.90
33877;BMP180;20166;51.738;7.158;2024-03-06T11:27:08;101742.00;;;10.80
33877;BMP180;20166;51.738;7.158;2024-03-06T11:30:04;101746.00;;;10.70
33877;BMP180;20166;51.738;7.158;2024-03-06T11:32:58;101746.00;;;10.50
33877;BMP180;20166;51.738;7.158;2024-03-06T11:36:17;101759.00;;;10.40
33877;BMP180;20166;51.738;7.158;2024-03-06T11:39:05;101756.00;;;10.40
33877;BMP180;20166;51.738;7.158;2024-03-06T11:41:52;101753.00;;;10.50
33877;BMP180;20166;51.738;7.158;2024-03-06T11:44:53;101754.00;;;10.70
33877;BMP180;20166;51.738;7.158;2024-03-06T11:48:00;101759.00;;;10.70
33877;BMP180;20166;51.738;7.158;2024-03-06T11:50:47;101756.00;;;10.90
33877;BMP180;20166;51.738;7.158;2024-03-06T11:53:34;101753.00;;;11.00
33877;BMP180;20166;51.738;7.158;2024-03-06T11:56:21;101751.00;;;11.30
33877;BMP180;20166;51.738;7.158;2024-03-06T11:59:08;101752.00;;;11.60
33877;BMP180;20166;51.738;7.158;2024-03-06T12:01:56;101753.00;;;11.70
33877;BMP180;20166;51.738;7.158;2024-03-06T12:04:44;101748.00;;;11.80
33877;BMP180;20166;51.738;7.158;2024-03-06T12:07:30;101743.00;;;11.80
33877;BMP180;20166;51.738;7.158;2024-03-06T12:10:19;101746.00;;;12.00
33877;BMP180;20166;51.738;7.158;2024-03-06T12:13:08;101761.00;;;12.00
33877;BMP180;20166;51.738;7.158;2024-03-06T12:15:55;101740.00;;;12.10
33877;BMP180;20166;51.738;7.158;2024-03-06T12:18:45;101744.00;;;12.30
33877;BMP180;20166;51.738;7.158;2024-03-06T12:21:34;101744.00;;;12.40
33877;BMP180;20166;51.738;7.158;2024-03-06T12:24:21;101747.00;;;12.30
33877;BMP180;20166;51.738;7.158;2024-03-06T12:27:08;101747.00;;;12.40
33877;BMP180;20166;51.738;7.158;2024-03-06T12:29:55;101750.00;;;12.50
33877;BMP180;20166;51.738;7.158;2024-03-06T12:32:41;101746.00;;;12.70
33877;BMP180;20166;51.738;7.158;2024-03-06T12:35:28;101747.00;;;12.90
33877;BMP180;20166;51.738;7.158;2024-03-06T12:38:16;101750.00;;;12.90
33877;BMP180;20166;51.738;7.158;2024-03-06T12:41:05;101749.00;;;13.00
33877;BMP180;20166;51.738;7.158;2024-03-06T12:43:52;101748.00;;;13.00
33877;BMP180;20166;51.738;7.158;2024-03-06T12:46:38;101754.00;;;13.00
33877;BMP180;20166;51.738;7.158;2024-03-06T12:49:25;101749.00;;;13.20
33877;BMP180;20166;51.738;7.158;2024-03-06T12:52:11;101752.00;;;13.40
33877;BMP180;20166;51.738;7.158;2024-03-06T12:54:59;101747.00;;;13.50
33877;BMP180;20166;51.738;7.158;2024-03-06T12:57:46;101753.00;;;13.40
33877;BMP180;20166;51.738;7.158;2024-03-06T13:00:32;101745.00;;;13.40
33877;BMP180;20166;51.738;7.158;2024-03-06T13:03:19;101754.00;;;13.30
33877;BMP180;20166;51.738;7.158;2024-03-06T13:06:05;101741.00;;;13.40
33877;BMP180;20166;51.738;7.158;2024-03-06T13:08:52;101736.00;;;13.40
33877;BMP180;20166;51.738;7.158;2024-03-06T13:11:39;101746.00;;;13.40
33877;BMP180;20166;51.738;7.158;2024-03-06T13:14:27;101737.00;;;13.40
33877;BMP180;20166;51.738;7.158;2024-03-06T13:17:13;101739.00;;;13.40
33877;BMP180;20166;51.738;7.158;2024-03-06T13:20:00;101742.00;;;13.60
33877;BMP180;20166;51.738;7.158;2024-03-06T13:22:47;101746.00;;;13.60
33877;BMP180;20166;51.738;7.158;2024-03-06T13:25:33;101732.00;;;13.50
33877;BMP180;20166;51.738;7.158;2024-03-06T13:28:21;101742.00;;;13.70
33877;BMP180;20166;51.738;7.158;2024-03-06T13:31:13;101751.00;;;13.70
33877;BMP180;20166;51.738;7.158;2024-03-06T13:33:59;101750.00;;;13.70
33877;BMP180;20166;51.738;7.158;2024-03-06T13:36:46;101753.00;;;13.80
33877;BMP180;20166;51.738;7.158;2024-03-06T13:39:32;101755.00;;;14.00
33877;BMP180;20166;51.738;7.158;2024-03-06T13:42:19;101752.00;;;14.10
33877;BMP180;20166;51.738;7.158;2024-03-06T13:45:07;101756.00;;;14.10
33877;BMP180;20166;51.738;7.158;2024-03-06T13:47:57;101749.00;;;14.00
33877;BMP180;20166;51.738;7.158;2024-03-06T13:50:43;101759.00;;;14.30
33877;BMP180;20166;51.738;7.158;2024-03-06T13:53:30;101751.00;;;14.50
33877;BMP180;20166;51.738;7.158;2024-03-06T13:56:17;101753.00;;;14.60
33877;BMP180;20166;51.738;7.158;2024-03-06T13:59:03;101744.00;;;14.70
33877;BMP180;20166;51.738;7.158;2024-03-06T14:01:51;101753.00;;;14.60
33877;BMP180;20166;51.738;7.158;2024-03-06T14:04:38;101748.00;;;14.60
33877;BMP180;20166;51.738;7.158;2024-03-06T14:07:25;101754.00;;;14.40
33877;BMP180;20166;51.738;7.158;2024-03-06T14:10:12;101761.00;;;14.10
33877;BMP180;20166;51.738;7.158;2024-03-06T14:12:58;101763.00;;;13.70
33877;BMP180;20166;51.738;7.158;2024-03-06T14:15:45;101765.00;;;13.30
33877;BMP180;20166;51.738;7.158;2024-03-06T14:18:34;101764.00;;;13.10
33877;BMP180;20166;51.738;7.158;2024-03-06T14:21:21;101774.00;;;12.90
33877;BMP180;20166;51.738;7.158;2024-03-06T14:24:07;101779.00;;;12.70
33877;BMP180;20166;51.738;7.158;2024-03-06T14:26:54;101776.00;;;12.70
33877;BMP180;20166;51.738;7.158;2024-03-06T14:29:40;101767.00;;;12.60
33877;BMP180;20166;51.738;7.158;2024-03-06T14:32:27;101771.00;;;12.40
33877;BMP180;20166;51.738;7.158;2024-03-06T14:35:15;101771.00;;;12.40
33877;BMP180;20166;51.738;7.158;2024-03-06T14:38:01;101779.00;;;12.40
33877;BMP180;20166;51.738;7.158;2024-03-06T14:40:47;101787.00;;;12.40
33877;BMP180;20166;51.738;7.158;2024-03-06T14:43:33;101789.00;;;12.30
33877;BMP180;20166;51.738;7.158;2024-03-06T14:46:21;101788.00;;;12.50
33877;BMP180;20166;51.738;7.158;2024-03-06T14:49:07;101781.00;;;12.60
33877;BMP180;20166;51.738;7.158;2024-03-06T14:51:55;101788.00;;;12.60
33877;BMP180;20166;51.738;7.158;2024-03-06T14:54:41;101795.00;;;12.60
33877;BMP180;20166;51.738;7.158;2024-03-06T14:57:29;101788.00;;;12.50
33877;BMP180;20166;51.738;7.158;2024-03-06T15:00:16;101778.00;;;12.50
33877;BMP180;20166;51.738;7.158;2024-03-06T15:03:06;101787.00;;;12.70
33877;BMP180;20166;51.738;7.158;2024-03-06T15:05:52;101783.00;;;12.70
33877;BMP180;20166;51.738;7.158;2024-03-06T15:08:40;101792.00;;;12.70
33877;BMP180;20166;51.738;7.158;2024-03-06T15:11:30;101786.00;;;12.60
33877;BMP180;20166;51.738;7.158;2024-03-06T15:14:18;101787.00;;;12.50
33877;BMP180;20166;51.738;7.158;2024-03-06T15:17:05;101798.00;;;12.40
33877;BMP180;20166;51.738;7.158;2024-03-06T15:19:52;101790.00;;;12.30
33877;BMP180;20166;51.738;7.158;2024-03-06T15:22:38;101798.00;;;12.30
33877;BMP180;20166;51.738;7.158;2024-03-06T15:25:30;101795.00;;;12.30
33877;BMP180;20166;51.738;7.158;2024-03-06T15:28:17;101789.00;;;12.40
33877;BMP180;20166;51.738;7.158;2024-03-06T15:31:03;101800.00;;;12.60
33877;BMP180;20166;51.738;7.158;2024-03-06T15:33:52;101807.00;;;12.60
33877;BMP180;20166;51.738;7.158;2024-03-06T15:36:39;101799.00;;;12.50
33877;BMP180;20166;51.738;7.158;2024-03-06T15:39:25;101801.00;;;12.40
33877;BMP180;20166;51.738;7.158;2024-03-06T15:42:13;101802.00;;;12.20
33877;BMP180;20166;51.738;7.158;2024-03-06T15:45:00;101800.00;;;12.30
33877;BMP180;20166;51.738;7.158;2024-03-06T15:47:46;101798.00;;;12.20
33877;BMP180;20166;51.738;7.158;2024-03-06T15:50:33;101807.00;;;12.10
33877;BMP180;20166;51.738;7.158;2024-03-06T15:53:19;101806.00;;;12.20
33877;BMP180;20166;51.738;7.158;2024-03-06T15:56:08;101804.00;;;12.20
33877;BMP180;20166;51.738;7.158;2024-03-06T15:58:57;101814.00;;;12.20
33877;BMP180;20166;51.738;7.158;2024-03-06T16:01:43;101808.00;;;12.20
33877;BMP180;20166;51.738;7.158;2024-03-06T16:04:30;101806.00;;;12.30